createdAt,value
2019-03-27T00:01:47.497Z,81.72
2019-03-27T00:04:16.822Z,81.37
2019-03-27T00:06:45.949Z,80.96
2019-03-27T00:09:15.129Z,80.94
2019-03-27T00:11:44.339Z,81.21
2019-03-27T00:14:13.606Z,81.60
2019-03-27T00:16:42.873Z,82.01
2019-03-27T00:19:12.074Z,81.65
2019-03-27T00:21:41.264Z,81.86
2019-03-27T00:24:10.436Z,81.88
2019-03-27T00:26:39.652Z,81.86
2019-03-27T00:29:08.973Z,81.52
2019-03-27T00:31:38.171Z,81.56
2019-03-27T00:34:08.625Z,81.37
2019-03-27T00:36:37.783Z,81.32
2019-03-27T00:39:07.361Z,81.22
2019-03-27T00:41:36.648Z,82.29
2019-03-27T00:44:05.889Z,82.56
2019-03-27T00:46:35.085Z,82.62
2019-03-27T00:49:04.286Z,82.46
2019-03-27T00:51:33.467Z,82.55
2019-03-27T00:54:02.641Z,82.72
2019-03-27T00:56:31.806Z,82.79
2019-03-27T00:59:01.079Z,82.80
2019-03-27T01:01:30.346Z,83.16
2019-03-27T01:03:59.551Z,83.67
2019-03-27T01:06:28.718Z,84.32
2019-03-27T01:08:57.934Z,84.45
2019-03-27T01:11:27.189Z,85.02
2019-03-27T01:13:56.456Z,85.08
2019-03-27T01:16:25.743Z,86.38
2019-03-27T01:18:54.982Z,88.85
2019-03-27T01:21:24.166Z,88.67
2019-03-27T01:23:53.371Z,87.96
2019-03-27T01:26:22.666Z,87.20
2019-03-27T01:28:51.835Z,86.72
2019-03-27T01:31:21.094Z,86.19
2019-03-27T01:33:50.268Z,86.42
2019-03-27T01:36:19.462Z,87.31
2019-03-27T01:38:48.667Z,88.47
2019-03-27T01:41:17.848Z,88.71
2019-03-27T01:43:47.115Z,88.10
2019-03-27T01:46:16.310Z,88.16
2019-03-27T01:48:45.557Z,88.25
2019-03-27T01:51:14.839Z,87.72
2019-03-27T01:53:44.032Z,89.04
2019-03-27T01:56:13.194Z,90.69
2019-03-27T01:58:42.366Z,91.60
2019-03-27T02:01:11.537Z,90.93
2019-03-27T02:03:40.711Z,91.68
2019-03-27T02:06:09.927Z,91.59
2019-03-27T02:08:39.105Z,90.76
2019-03-27T02:11:08.361Z,90.44
2019-03-27T02:13:37.547Z,89.88
2019-03-27T02:16:07.545Z,89.65
2019-03-27T02:18:36.959Z,90.36
2019-03-27T02:21:06.213Z,90.85
2019-03-27T02:23:35.377Z,92.32
2019-03-27T02:26:04.676Z,92.76
2019-03-27T02:28:33.852Z,93.01
2019-03-27T02:31:04.479Z,92.96
2019-03-27T02:33:33.797Z,92.82
2019-03-27T02:36:02.989Z,92.82
2019-03-27T02:38:32.169Z,93.06
2019-03-27T02:41:01.533Z,92.71
2019-03-27T02:43:30.712Z,93.21
2019-03-27T02:45:59.933Z,93.29
2019-03-27T02:48:29.107Z,92.72
2019-03-27T02:50:58.263Z,92.36
2019-03-27T02:53:27.427Z,92.68
2019-03-27T02:55:56.606Z,92.65
2019-03-27T02:58:25.916Z,92.69
2019-03-27T03:00:55.096Z,92.75
2019-03-27T03:03:24.275Z,93.55
2019-03-27T03:05:53.461Z,94.35
2019-03-27T03:08:22.629Z,94.23
2019-03-27T03:10:51.831Z,94.30
2019-03-27T03:13:21.003Z,94.46
2019-03-27T03:15:50.180Z,94.40
2019-03-27T03:18:19.344Z,94.30
2019-03-27T03:20:48.528Z,93.89
2019-03-27T03:23:17.715Z,93.97
2019-03-27T03:25:46.892Z,94.03
2019-03-27T03:28:16.060Z,93.88
2019-03-27T03:30:45.252Z,93.88
2019-03-27T03:33:14.453Z,93.42
2019-03-27T03:35:43.639Z,93.01
2019-03-27T03:38:12.851Z,93.89
2019-03-27T03:40:42.024Z,93.79
2019-03-27T03:43:11.317Z,93.91
2019-03-27T03:45:40.639Z,93.19
2019-03-27T03:48:09.980Z,93.71
2019-03-27T03:50:44.202Z,93.76
2019-03-27T03:53:14.824Z,93.86
2019-03-27T03:55:44.187Z,94.84
2019-03-27T03:58:17.697Z,95.39
2019-03-27T04:00:47.033Z,95.13
2019-03-27T04:03:16.230Z,94.78
2019-03-27T04:05:45.446Z,94.60
2019-03-27T04:08:14.707Z,94.34
2019-03-27T04:10:44.196Z,94.56
2019-03-27T04:13:13.520Z,94.89
2019-03-27T04:15:42.685Z,95.35
2019-03-27T04:18:11.904Z,95.71
2019-03-27T04:20:41.065Z,95.98
2019-03-27T04:23:10.325Z,96.28
2019-03-27T04:26:07.069Z,96.15
2019-03-27T04:28:10.488Z,96.17
2019-03-27T04:30:39.665Z,96.17
2019-03-27T04:33:09.124Z,95.83
2019-03-27T04:35:38.316Z,95.73
2019-03-27T04:38:07.498Z,96.38
2019-03-27T04:40:36.696Z,97.46
2019-03-27T04:43:05.966Z,96.89
2019-03-27T04:45:35.150Z,97.09
2019-03-27T04:48:04.338Z,97.08
2019-03-27T04:50:33.523Z,97.63
2019-03-27T04:53:02.793Z,98.35
2019-03-27T04:55:31.961Z,98.43
2019-03-27T04:58:01.144Z,98.09
2019-03-27T05:00:30.305Z,98.25
2019-03-27T05:02:59.477Z,97.84
2019-03-27T05:05:28.639Z,98.16
2019-03-27T05:07:57.842Z,98.63
2019-03-27T05:10:27.009Z,99.01
2019-03-27T05:12:56.191Z,99.06
2019-03-27T05:15:25.367Z,99.37
2019-03-27T05:17:54.542Z,99.54
2019-03-27T05:20:24.202Z,99.50
2019-03-27T05:22:53.402Z,100.00
2019-03-27T05:25:22.584Z,100.00
2019-03-27T05:27:51.767Z,100.00
2019-03-27T05:30:28.265Z,100.00
2019-03-27T05:32:57.752Z,100.00
2019-03-27T05:35:27.056Z,100.00
2019-03-27T05:37:56.269Z,100.00
2019-03-27T05:40:25.569Z,100.00
2019-03-27T05:43:01.010Z,100.00
2019-03-27T05:45:26.389Z,100.00
2019-03-27T05:47:59.699Z,100.00
2019-03-27T05:50:26.463Z,100.00
2019-03-27T05:52:55.626Z,99.89
2019-03-27T05:55:26.557Z,100.00
2019-03-27T05:57:55.689Z,100.00
2019-03-27T06:00:24.900Z,100.00
2019-03-27T06:02:54.070Z,100.00
2019-03-27T06:05:23.279Z,100.00
2019-03-27T06:07:52.452Z,100.00
2019-03-27T06:10:21.752Z,100.00
2019-03-27T06:12:50.937Z,99.82
2019-03-27T06:15:20.150Z,99.52
2019-03-27T06:17:49.311Z,99.17
2019-03-27T06:20:18.498Z,98.91
2019-03-27T06:22:47.667Z,98.60
2019-03-27T06:25:16.847Z,98.01
2019-03-27T06:27:46.013Z,97.44
2019-03-27T06:30:15.334Z,96.82
2019-03-27T06:32:44.528Z,96.44
2019-03-27T06:35:13.711Z,96.42
2019-03-27T06:37:42.883Z,96.30
2019-03-27T06:40:12.277Z,96.31
2019-03-27T06:42:41.461Z,96.02
2019-03-27T06:45:10.760Z,95.67
2019-03-27T06:47:39.961Z,95.49
2019-03-27T06:50:09.315Z,95.81
2019-03-27T06:52:38.536Z,96.29
2019-03-27T06:55:08.463Z,96.15
2019-03-27T06:57:37.643Z,95.94
2019-03-27T07:00:09.061Z,96.07
2019-03-27T07:02:38.530Z,96.01
2019-03-27T07:05:08.321Z,95.88
2019-03-27T07:07:37.641Z,95.69
2019-03-27T07:10:07.210Z,95.66
2019-03-27T07:12:36.532Z,95.66
2019-03-27T07:15:06.523Z,95.48
2019-03-27T07:17:35.767Z,95.14
2019-03-27T07:20:05.693Z,94.70
2019-03-27T07:22:35.002Z,94.45
2019-03-27T07:25:04.898Z,94.16
2019-03-27T07:27:34.075Z,93.74
2019-03-27T07:30:03.354Z,93.33
2019-03-27T07:32:32.578Z,92.70
2019-03-27T07:35:01.769Z,92.19
2019-03-27T07:37:30.975Z,91.95
2019-03-27T07:40:00.179Z,91.66
2019-03-27T07:42:29.331Z,91.49
2019-03-27T07:44:58.606Z,91.10
2019-03-27T07:47:27.750Z,90.82
2019-03-27T07:49:56.983Z,90.38
2019-03-27T07:52:26.266Z,89.56
2019-03-27T07:54:55.542Z,88.94
2019-03-27T07:57:24.872Z,88.66
2019-03-27T07:59:54.157Z,88.33
2019-03-27T08:02:23.677Z,87.66
2019-03-27T08:04:53.046Z,87.28
2019-03-27T08:07:27.090Z,86.28
2019-03-27T08:09:53.189Z,85.83
2019-03-27T08:12:22.375Z,85.61
2019-03-27T08:14:51.619Z,85.09
2019-03-27T08:17:24.541Z,84.62
2019-03-27T08:19:55.551Z,83.33
2019-03-27T08:22:24.734Z,82.69
2019-03-27T08:24:54.920Z,81.35
2019-03-27T08:27:24.147Z,80.86
2019-03-27T08:29:53.382Z,80.51
2019-03-27T08:32:22.645Z,80.16
2019-03-27T08:34:51.818Z,79.51
2019-03-27T08:37:21.038Z,78.64
2019-03-27T08:39:50.211Z,78.62
2019-03-27T08:42:19.397Z,77.00
2019-03-27T08:44:48.586Z,76.26
2019-03-27T08:47:17.794Z,76.53
2019-03-27T08:49:46.983Z,75.64
2019-03-27T08:52:16.328Z,74.61
2019-03-27T08:54:45.610Z,74.08
2019-03-27T08:57:14.854Z,73.91
2019-03-27T08:59:44.103Z,74.34
2019-03-27T09:02:13.755Z,71.58
2019-03-27T09:04:42.920Z,70.00
2019-03-27T09:07:12.157Z,69.23
2019-03-27T09:09:41.341Z,69.06
2019-03-27T09:12:10.529Z,67.98
2019-03-27T09:14:39.811Z,68.46
2019-03-27T09:17:08.982Z,68.52
2019-03-27T09:19:38.174Z,67.78
2019-03-27T09:22:07.420Z,68.45
2019-03-27T09:24:36.597Z,67.50
2019-03-27T09:27:05.867Z,67.28
2019-03-27T09:29:35.044Z,66.18
2019-03-27T09:32:04.323Z,65.38
2019-03-27T09:34:33.491Z,65.61
2019-03-27T09:37:02.687Z,63.13
2019-03-27T09:39:32.118Z,63.14
2019-03-27T09:42:01.310Z,63.19
2019-03-27T09:44:30.479Z,63.33
2019-03-27T09:46:59.666Z,62.28
2019-03-27T09:49:28.901Z,62.52
2019-03-27T09:51:58.072Z,62.76
2019-03-27T09:54:27.244Z,61.91
2019-03-27T09:56:56.509Z,60.91
2019-03-27T09:59:25.707Z,60.36
2019-03-27T10:01:54.957Z,60.17
2019-03-27T10:04:24.205Z,59.66
2019-03-27T10:06:53.403Z,60.23
2019-03-27T10:09:22.599Z,59.29
2019-03-27T10:11:51.849Z,59.04
2019-03-27T10:14:21.099Z,59.68
2019-03-27T10:16:50.278Z,58.60
2019-03-27T10:19:19.456Z,57.80
2019-03-27T10:21:50.768Z,57.67
2019-03-27T10:24:20.078Z,57.73
2019-03-27T10:26:49.377Z,56.30
2019-03-27T10:29:18.552Z,57.19
2019-03-27T10:31:47.735Z,56.09
2019-03-27T10:34:16.915Z,56.49
2019-03-27T10:36:46.171Z,55.95
2019-03-27T10:39:15.445Z,55.18
2019-03-27T10:41:44.693Z,55.24
2019-03-27T10:44:13.877Z,55.49
2019-03-27T10:46:43.077Z,55.09
2019-03-27T10:49:12.278Z,54.19
2019-03-27T10:51:41.530Z,54.36
2019-03-27T10:54:10.897Z,54.85
2019-03-27T10:56:40.187Z,53.72
2019-03-27T10:59:09.446Z,53.34
2019-03-27T11:01:38.761Z,52.48
2019-03-27T11:04:07.930Z,53.08
2019-03-27T11:06:37.189Z,54.05
2019-03-27T11:09:08.973Z,52.11
2019-03-27T11:11:38.260Z,52.02
2019-03-27T11:14:07.529Z,52.62
2019-03-27T11:16:36.718Z,52.28
2019-03-27T11:19:06.341Z,51.47
2019-03-27T11:21:36.748Z,52.40
2019-03-27T11:24:06.126Z,52.30
2019-03-27T11:26:35.415Z,53.26
2019-03-27T11:29:04.632Z,52.40
2019-03-27T11:31:33.913Z,52.19
2019-03-27T11:34:03.149Z,51.85
2019-03-27T11:36:35.081Z,52.95
2019-03-27T11:39:04.964Z,53.18
2019-03-27T11:41:34.191Z,53.61
2019-03-27T11:44:03.431Z,53.01
2019-03-27T11:46:33.708Z,53.04
2019-03-27T11:49:02.865Z,55.53
2019-03-27T11:51:32.055Z,56.34
2019-03-27T11:54:01.236Z,55.21
2019-03-27T11:56:30.541Z,55.28
2019-03-27T11:58:59.840Z,54.27
2019-03-27T12:01:38.946Z,53.67
2019-03-27T12:03:59.992Z,52.97
2019-03-27T12:06:29.222Z,53.20
2019-03-27T12:08:58.615Z,52.64
2019-03-27T12:11:27.794Z,52.37
2019-03-27T12:13:59.167Z,53.47
2019-03-27T12:16:28.366Z,52.06
2019-03-27T12:18:57.562Z,52.23
2019-03-27T12:21:26.715Z,52.15
2019-03-27T12:23:56.006Z,52.50
2019-03-27T12:26:25.253Z,51.38
2019-03-27T12:28:54.420Z,51.28
2019-03-27T12:31:23.591Z,53.37
2019-03-27T12:33:52.781Z,52.40
2019-03-27T12:36:21.968Z,51.83
2019-03-27T12:38:51.163Z,53.15
2019-03-27T12:41:20.352Z,51.71
2019-03-27T12:43:49.580Z,52.58
2019-03-27T12:46:18.737Z,52.51
2019-03-27T12:48:48.018Z,52.72
2019-03-27T12:51:17.293Z,50.80
2019-03-27T12:53:46.484Z,51.28
2019-03-27T12:56:15.734Z,51.72
2019-03-27T12:58:45.000Z,50.25
2019-03-27T13:01:14.332Z,49.42
2019-03-27T13:03:44.648Z,49.94
2019-03-27T13:06:13.977Z,49.96
2019-03-27T13:08:43.284Z,49.66
2019-03-27T13:11:12.567Z,49.77
2019-03-27T13:13:41.746Z,49.94
2019-03-27T13:16:10.975Z,50.31
2019-03-27T13:18:40.188Z,50.77
2019-03-27T13:21:09.435Z,50.17
2019-03-27T13:23:38.638Z,51.69
2019-03-27T13:26:07.842Z,51.19
2019-03-27T13:28:48.248Z,50.43
2019-03-27T13:31:07.931Z,52.87
2019-03-27T13:33:37.112Z,51.97
2019-03-27T13:36:07.741Z,51.41
2019-03-27T13:38:37.261Z,50.39
2019-03-27T13:41:06.505Z,50.51
2019-03-27T13:43:35.693Z,49.21
2019-03-27T13:46:04.956Z,49.76
2019-03-27T13:48:34.146Z,49.22
2019-03-27T13:51:03.305Z,48.93
2019-03-27T13:53:32.492Z,48.84
2019-03-27T13:56:01.673Z,48.30
2019-03-27T13:58:30.859Z,50.42
2019-03-27T14:01:00.149Z,49.33
2019-03-27T14:03:29.407Z,48.86
2019-03-27T14:05:58.637Z,49.20
2019-03-27T14:08:27.797Z,49.90
2019-03-27T14:10:56.981Z,48.28
2019-03-27T14:13:26.299Z,48.05
2019-03-27T14:15:55.483Z,47.91
2019-03-27T14:18:24.674Z,48.33
2019-03-27T14:20:53.907Z,50.11
2019-03-27T14:23:23.076Z,49.29
2019-03-27T14:25:52.328Z,50.06
2019-03-27T14:28:21.543Z,49.81
2019-03-27T14:31:00.012Z,49.21
2019-03-27T14:33:29.164Z,51.44
2019-03-27T14:35:58.420Z,52.20
2019-03-27T14:38:27.744Z,52.53
2019-03-27T14:40:57.025Z,50.80
2019-03-27T14:43:27.229Z,50.17
2019-03-27T14:45:56.584Z,49.85
2019-03-27T14:48:25.759Z,49.70
2019-03-27T14:50:55.267Z,49.02
2019-03-27T14:53:24.439Z,49.64
2019-03-27T14:55:55.532Z,49.65
2019-03-27T14:58:24.695Z,50.73
2019-03-27T15:00:53.974Z,51.56
2019-03-27T15:03:23.282Z,50.93
2019-03-27T15:05:52.475Z,50.94
2019-03-27T15:08:21.722Z,51.37
2019-03-27T15:10:51.024Z,49.80
2019-03-27T15:13:20.191Z,50.60
2019-03-27T15:15:49.391Z,50.19
2019-03-27T15:18:18.615Z,49.82
2019-03-27T15:20:47.781Z,48.81
2019-03-27T15:23:16.956Z,49.38
2019-03-27T15:25:46.140Z,49.82
2019-03-27T15:28:15.335Z,49.22
2019-03-27T15:30:44.520Z,48.65
2019-03-27T15:33:13.777Z,48.52
2019-03-27T15:35:44.543Z,48.90
2019-03-27T15:38:18.519Z,49.14
2019-03-27T15:40:54.329Z,49.03
2019-03-27T15:43:30.567Z,49.48
2019-03-27T15:46:44.142Z,49.58
2019-03-27T15:49:19.384Z,50.42
2019-03-27T15:52:11.507Z,49.36
2019-03-27T15:54:54.753Z,50.04
2019-03-27T15:57:35.483Z,48.96
2019-03-27T16:00:08.844Z,51.15
2019-03-27T16:02:42.683Z,51.16
2019-03-27T16:05:19.186Z,51.88
2019-03-27T16:07:49.414Z,50.88
2019-03-27T16:10:21.857Z,50.50
2019-03-27T16:12:56.134Z,49.65
2019-03-27T16:15:37.054Z,50.88
2019-03-27T16:18:08.839Z,50.74
2019-03-27T16:20:41.129Z,52.00
2019-03-27T16:23:13.177Z,52.53
2019-03-27T16:25:44.335Z,54.41
2019-03-27T16:28:13.555Z,54.08
2019-03-27T16:30:42.719Z,52.63
2019-03-27T16:33:11.976Z,51.80
2019-03-27T16:35:41.158Z,53.13
2019-03-27T16:38:10.332Z,52.98
2019-03-27T16:40:47.324Z,53.20
2019-03-27T16:43:17.182Z,52.58
2019-03-27T16:45:46.570Z,53.50
2019-03-27T16:48:15.817Z,53.03
2019-03-27T16:50:44.990Z,52.48
2019-03-27T16:53:14.285Z,52.75
2019-03-27T16:55:43.439Z,55.66
2019-03-27T16:58:12.617Z,55.57
2019-03-27T17:00:41.867Z,54.65
2019-03-27T17:03:11.212Z,55.52
2019-03-27T17:05:53.259Z,55.86
2019-03-27T17:08:11.569Z,56.76
2019-03-27T17:10:40.738Z,56.43
2019-03-27T17:13:09.918Z,56.48
2019-03-27T17:15:39.093Z,56.40
2019-03-27T17:18:08.502Z,55.68
2019-03-27T17:20:37.662Z,55.17
2019-03-27T17:23:17.372Z,54.53
2019-03-27T17:25:37.882Z,54.38
2019-03-27T17:28:08.501Z,55.53
2019-03-27T17:30:37.838Z,55.41
2019-03-27T17:33:07.023Z,56.45
2019-03-27T17:35:36.279Z,57.20
2019-03-27T17:38:05.581Z,57.43
2019-03-27T17:40:34.745Z,58.04
2019-03-27T17:43:03.963Z,60.14
2019-03-27T17:45:33.190Z,60.93
2019-03-27T17:48:02.349Z,60.92
2019-03-27T17:50:31.532Z,61.14
2019-03-27T17:53:00.779Z,61.39
2019-03-27T17:55:29.947Z,62.18
2019-03-27T17:57:59.123Z,62.51
2019-03-27T18:00:41.941Z,62.91
2019-03-27T18:03:11.208Z,63.12
2019-03-27T18:05:40.365Z,63.78
2019-03-27T18:08:09.571Z,63.67
2019-03-27T18:10:38.811Z,63.95
2019-03-27T18:13:08.134Z,65.54
2019-03-27T18:15:37.309Z,67.24
2019-03-27T18:18:06.500Z,67.58
2019-03-27T18:20:35.703Z,67.37
2019-03-27T18:23:04.868Z,67.57
2019-03-27T18:25:34.109Z,67.68
2019-03-27T18:28:03.309Z,67.72
2019-03-27T18:30:32.497Z,68.45
2019-03-27T18:33:01.749Z,69.65
2019-03-27T18:35:30.966Z,69.46
2019-03-27T18:38:00.214Z,69.39
2019-03-27T18:40:29.485Z,69.74
2019-03-27T18:42:58.668Z,69.97
2019-03-27T18:45:27.932Z,69.94
2019-03-27T18:47:57.223Z,70.13
2019-03-27T18:50:26.700Z,70.54
2019-03-27T18:52:55.873Z,71.78
2019-03-27T18:55:26.833Z,71.86
2019-03-27T18:58:00.320Z,71.86
2019-03-27T19:00:27.112Z,72.68
2019-03-27T19:02:56.377Z,72.50
2019-03-27T19:05:25.730Z,72.74
2019-03-27T19:07:54.904Z,73.43
2019-03-27T19:10:24.103Z,73.84
2019-03-27T19:12:53.266Z,75.03
2019-03-27T19:15:22.520Z,74.69
2019-03-27T19:17:51.716Z,74.35
2019-03-27T19:20:20.926Z,74.77
2019-03-27T19:22:50.114Z,75.34
2019-03-27T19:25:19.284Z,75.32
2019-03-27T19:27:48.445Z,75.26
2019-03-27T19:30:18.200Z,75.11
2019-03-27T19:32:47.444Z,75.51
2019-03-27T19:35:16.622Z,76.91
2019-03-27T19:37:45.800Z,77.40
2019-03-27T19:40:15.141Z,77.86
2019-03-27T19:42:44.394Z,79.22
2019-03-27T19:45:13.668Z,79.06
2019-03-27T19:47:42.925Z,78.96
2019-03-27T19:50:12.329Z,78.29
2019-03-27T19:52:41.568Z,78.38
2019-03-27T19:55:10.816Z,78.94
2019-03-27T19:57:39.998Z,80.02
2019-03-27T20:00:10.136Z,81.34
2019-03-27T20:02:42.351Z,80.52
2019-03-27T20:05:14.842Z,79.83
2019-03-27T20:07:50.965Z,79.47
2019-03-27T20:10:23.743Z,79.28
2019-03-27T20:12:55.178Z,79.99
2019-03-27T20:15:39.083Z,82.34
2019-03-27T20:18:08.805Z,82.53
2019-03-27T20:20:40.023Z,81.96
2019-03-27T20:23:15.100Z,81.67
2019-03-27T20:25:58.343Z,81.55
2019-03-27T20:28:29.544Z,81.95
2019-03-27T20:31:09.724Z,81.76
2019-03-27T20:33:44.158Z,82.54
2019-03-27T20:36:17.408Z,82.18
2019-03-27T20:38:48.390Z,82.09
2019-03-27T20:41:19.824Z,82.16
2019-03-27T20:43:49.766Z,82.41
2019-03-27T20:46:26.393Z,83.36
2019-03-27T20:48:56.024Z,83.63
2019-03-27T20:51:28.316Z,84.23
2019-03-27T20:54:01.718Z,83.81
2019-03-27T20:56:35.551Z,83.60
2019-03-27T20:59:07.292Z,84.78
2019-03-27T21:01:38.099Z,85.01
2019-03-27T21:04:14.606Z,85.52
2019-03-27T21:06:44.336Z,85.42
2019-03-27T21:09:16.380Z,84.71
2019-03-27T21:11:48.057Z,83.84
2019-03-27T21:14:19.529Z,83.67
2019-03-27T21:16:51.636Z,84.07
2019-03-27T21:19:37.656Z,84.36
2019-03-27T21:22:11.360Z,85.51
2019-03-27T21:24:41.862Z,85.12
2019-03-27T21:27:16.927Z,85.53
2019-03-27T21:29:46.601Z,85.62
2019-03-27T21:32:17.731Z,85.08
2019-03-27T21:34:52.224Z,85.01
2019-03-27T21:37:47.936Z,84.84
2019-03-27T21:40:18.332Z,84.66
2019-03-27T21:42:54.451Z,84.44
2019-03-27T21:45:32.020Z,84.53
2019-03-27T21:48:01.928Z,85.19
2019-03-27T21:50:34.582Z,86.54
2019-03-27T21:53:15.293Z,87.15
2019-03-27T21:55:45.642Z,86.36
2019-03-27T21:58:20.526Z,87.46
2019-03-27T22:00:53.991Z,87.90
2019-03-27T22:03:25.226Z,88.03
2019-03-27T22:05:57.313Z,88.50
2019-03-27T22:08:29.020Z,88.85
2019-03-27T22:11:00.721Z,88.71
2019-03-27T22:13:30.338Z,88.24
2019-03-27T22:15:59.868Z,87.57
2019-03-27T22:18:30.666Z,87.79
2019-03-27T22:21:06.858Z,88.12
2019-03-27T22:23:38.888Z,88.60
2019-03-27T22:26:09.625Z,88.68
2019-03-27T22:28:44.949Z,89.50
2019-03-27T22:31:14.652Z,90.56
2019-03-27T22:33:45.666Z,90.36
2019-03-27T22:36:15.186Z,90.69
2019-03-27T22:38:44.803Z,90.38
2019-03-27T22:41:15.660Z,89.65
2019-03-27T22:43:48.280Z,88.95
2019-03-27T22:46:20.055Z,89.01
2019-03-27T22:48:49.383Z,89.29
2019-03-27T22:51:21.829Z,89.91
2019-03-27T22:53:53.397Z,90.23
2019-03-27T22:56:22.705Z,90.37
2019-03-27T22:58:51.869Z,90.33
2019-03-27T23:01:21.189Z,90.42
2019-03-27T23:03:50.358Z,89.88
2019-03-27T23:06:19.599Z,89.84
2019-03-27T23:08:48.855Z,89.48
2019-03-27T23:11:18.033Z,89.32
2019-03-27T23:13:47.196Z,89.48
2019-03-27T23:16:16.378Z,89.08
2019-03-27T23:18:45.623Z,89.47
2019-03-27T23:21:14.805Z,89.92
2019-03-27T23:23:43.968Z,89.62
2019-03-27T23:26:13.125Z,90.08
2019-03-27T23:28:42.393Z,90.24
2019-03-27T23:31:11.563Z,90.07
2019-03-27T23:33:40.783Z,90.23
2019-03-27T23:36:10.048Z,90.46
2019-03-27T23:38:39.370Z,90.91
2019-03-27T23:41:08.708Z,91.13
2019-03-27T23:43:37.994Z,91.93
2019-03-27T23:46:07.277Z,91.82
2019-03-27T23:48:36.482Z,91.35
2019-03-27T23:51:05.777Z,90.77
2019-03-27T23:53:34.968Z,91.07
2019-03-27T23:56:15.820Z,91.48
2019-03-27T23:58:35.123Z,92.22
